CheckWX is a tool to help pilots better visualize weather data.  It is not intended as a substitute for an official pre-flight weather briefing.

17:35:21 UTC

HKEL TAF
Eldoret International Airport
Eldoret, Kenya
TAF HKEL 241100Z 2412/2512 12013KT 9999 FEW026 TEMPO 2412/2418 -SHRA FEW022CB SCT023 SCT090 BECMG 2420/2423 13007KT NSW FEW019 SCT080 BECMG 2508/2511 11010KT SCT025

Mar-24@
12:00 UTC

Mar-24 @ 12:00 UTC

Mar-24@
20:00 UTC

Mar-24 @ 20:00 UTC

TAF HKEL 241100Z 2412/2512 12013KT 9999 FEW026
Wind
  • 120° at 13 KTS
Cloud Levels
  • Few at 2,600' AGL

Mar-24@
12:00 UTC

Mar-24 @ 12:00 UTC

Mar-24@
18:00 UTC

Mar-24 @ 18:00 UTC

TEMPO 2412/2418 -SHRA FEW022CB SCT023 SCT090

Temporary

Temporary Changes expected for less than half the time period

Conditions
Light Rain
Cloud Levels
  • Few at 2,200' AGL
  • Scattered at 2,300' AGL
  • Scattered at 9,000' AGL

Mar-24@
20:00 UTC

Mar-24 @ 20:00 UTC

Mar-25@
08:00 UTC

Mar-25 @ 08:00 UTC

BECMG 2420/2423 13007KT NSW FEW019 SCT080

Becoming

Becoming Conditions expected by Sun, Mar 24, 2019 @ 23:00 UTC

Wind
  • 130° at 7 KTS
Conditions
No significant weather
Cloud Levels
  • Few at 1,900' AGL
  • Scattered at 8,000' AGL

Mar-25@
08:00 UTC

Mar-25 @ 08:00 UTC

Mar-25@
12:00 UTC

Mar-25 @ 12:00 UTC

BECMG 2508/2511 11010KT SCT025

Becoming

Becoming Conditions expected by Mon, Mar 25, 2019 @ 11:00 UTC

Wind
  • 110° at 10 KTS
Conditions
No significant weather
Cloud Levels
  • Scattered at 2,500' AGL